European Causeway — C6RG7 — position and weather

sailwx.info

Track history (hours):
 
Tides and Currents Weather Stations Pressure Air Temp Water Temp Dewpoint Dewpoint Depression Visibility Wind Speed Wind Dir Waves Ship Positions

European Causeway

Operator: P & O Irish Sea

Last reported at 2017-Jun-23 17:01 UTC. Time now 2017-Jun-23 17:24 UTC.
Position N 55°01' W 005°09'.

Length 165 m; draft 5.5 m.

Type: Passenger vessel. MMSI: 311027000.

Date/timePositionNaut miles runAvg speedWind from/ knotsBaromVisibWave heightAir tempDewpointWater temp
2017-Jun-23 17:01N 55°01' W 005°09'918.3
2017-Jun-23 16:30N 54°57' W 005°23'919.0
2017-Jun-23 16:01N 54°53' W 005°38'612.4
2017-Jun-23 15:30N 54°51' W 005°48'0 0.1
2017-Jun-23 14:58N 54°51' W 005°48'0 0.0
2017-Jun-23 14:31N 54°51' W 005°48'1414.3
2017-Jun-23 13:30N 54°58' W 005°26'917.9
2017-Jun-23 13:00N 55°01' W 005°12'713.9
2017-Jun-23 12:30N 54°58' W 005°01'0 0.0
2017-Jun-23 11:54N 54°58' W 005°01'0 0.0
2017-Jun-23 11:28N 54°58' W 005°01'5 9.8
2017-Jun-23 10:55N 55°01' W 005°07'921.1
2017-Jun-23 10:31N 54°58' W 005°21'1020.7
2017-Jun-23 10:01N 54°54' W 005°38'612.9
2017-Jun-23 09:30N 54°51' W 005°48'0 0.0
2017-Jun-23 09:00N 54°51' W 005°48'0 0.0
2017-Jun-23 08:30N 54°51' W 005°48'611.1
2017-Jun-23 08:00N 54°54' W 005°40'917.2
2017-Jun-23 07:31N 54°57' W 005°26'917.5
2017-Jun-23 07:00N 55°01' W 005°12'713.2
2017-Jun-23 06:30N 54°58' W 005°02'1 1.5
2017-Jun-23 06:00N 54°58' W 005°01'0 0.0
2017-Jun-23 05:27N 54°58' W 005°01'0 0.0
2017-Jun-23 04:57N 54°58' W 005°01'5 8.7
2017-Jun-23 04:20N 55°01' W 005°07'619.5
2017-Jun-23 04:00N 54°59' W 005°17'1121.2
2017-Jun-23 03:30N 54°54' W 005°34'917.1
2017-Jun-23 03:01N 54°51' W 005°48'0 0.2
2017-Jun-23 02:28N 54°51' W 005°48'0 0.0
2017-Jun-23 01:55N 54°51' W 005°48'0 0.0
2017-Jun-23 01:28N 54°51' W 005°48'0 0.0
2017-Jun-23 01:00N 54°51' W 005°48'510.9
2017-Jun-23 00:30N 54°54' W 005°40'1019.1
2017-Jun-23 00:00N 54°58' W 005°25'917.6
2017-Jun-22 23:30N 55°01' W 005°11'713.7
2017-Jun-22 23:00N 54°58' W 005°01'0 0.0
2017-Jun-22 22:29N 54°58' W 005°01'0 0.0
2017-Jun-22 22:00N 54°58' W 005°01'0 0.0
2017-Jun-22 21:30N 54°58' W 005°01'0 0.0
2017-Jun-22 20:52N 54°58' W 005°01'612.6
2017-Jun-22 20:25N 55°01' W 005°09'717.7
2017-Jun-22 20:01N 54°58' W 005°20'918.3
2017-Jun-22 19:31N 54°54' W 005°34'816.9
2017-Jun-22 19:01N 54°51' W 005°48'0 0.2
2017-Jun-22 18:29N 54°51' W 005°48'0 0.0
2017-Jun-22 17:59N 54°51' W 005°48'0 0.1
2017-Jun-22 17:31N 54°51' W 005°48'612.2
2017-Jun-22 17:00N 54°54' W 005°38'918.2
2017-Jun-22 16:30N 54°58' W 005°25'918.9
2017-Jun-22 16:00N 55°01' W 005°09'612.1
2017-Jun-22 15:30N 54°58' W 005°01'0 0.0
2017-Jun-22 14:55N 54°58' W 005°01'0 0.0
2017-Jun-22 14:30N 54°58' W 005°01'1312.7
2017-Jun-22 13:30N 54°57' W 005°23'918.9
2017-Jun-22 13:00N 54°55' W 005°39'713.0
2017-Jun-22 12:31N 54°51' W 005°48'0 0.1
2017-Jun-22 12:00N 54°51' W 005°48'0 0.0
2017-Jun-22 11:30N 54°51' W 005°48'4 8.0
2017-Jun-22 11:00N 54°53' W 005°42'1121.5
2017-Jun-22 10:30N 54°56' W 005°24'918.3
2017-Jun-22 10:00N 55°01' W 005°11'612.4
2017-Jun-22 09:30N 54°58' W 005°01'0 0.3
2017-Jun-22 08:55N 54°58' W 005°01'0 0.0
2017-Jun-22 08:30N 54°58' W 005°01'510.4
2017-Jun-22 08:00N 55°01' W 005°07'815.9
2017-Jun-22 07:30N 54°58' W 005°20'816.1
2017-Jun-22 07:00N 54°55' W 005°32'918.3
2017-Jun-22 06:30N 54°52' W 005°47'1 1.8
2017-Jun-22 05:59N 54°51' W 005°48'0 0.0
2017-Jun-22 05:29N 54°51' W 005°48'0 0.0
2017-Jun-22 05:00N 54°51' W 005°48'511.0
2017-Jun-22 04:30N 54°54' W 005°40'1019.7
2017-Jun-22 04:00N 54°58' W 005°24'1119.9
2017-Jun-22 03:28N 55°01' W 005°07'510.9
2017-Jun-22 03:00N 54°58' W 005°01'0 0.0
2017-Jun-22 02:28N 54°58' W 005°01'0 0.0
2017-Jun-22 01:58N 54°58' W 005°01'0 0.0
2017-Jun-22 01:28N 54°58' W 005°01'0 0.0
2017-Jun-22 01:00N 54°58' W 005°01'510.2
2017-Jun-22 00:28N 55°02' W 005°07'1021.8
2017-Jun-22 00:00N 54°57' W 005°23'1020.9
2017-Jun-21 23:31N 54°53' W 005°40'5 7.5
2017-Jun-21 22:50N 54°51' W 005°48'0 0.0
2017-Jun-21 22:29N 54°51' W 005°48'0 0.0
2017-Jun-21 21:59N 54°51' W 005°48'0 0.0
2017-Jun-21 21:26N 54°51' W 005°48'0 0.0
2017-Jun-21 20:56N 54°51' W 005°48'0 0.0
2017-Jun-21 20:26N 54°51' W 005°48'0 0.0
2017-Jun-21 19:59N 54°51' W 005°48'0 0.0
2017-Jun-21 19:29N 54°51' W 005°48'0 0.2
2017-Jun-21 18:56N 54°51' W 005°48'0 0.0
2017-Jun-21 18:29N 54°51' W 005°48'0 0.0
2017-Jun-21 17:59N 54°51' W 005°48'0 0.0
2017-Jun-21 17:29N 54°51' W 005°48'0 0.0
2017-Jun-21 16:56N 54°51' W 005°48'0 0.0
2017-Jun-21 16:29N 54°51' W 005°48'0 0.0
2017-Jun-21 15:59N 54°51' W 005°48'0 0.0
2017-Jun-21 15:26N 54°51' W 005°48'0 0.0
2017-Jun-21 14:38N 54°51' W 005°48'0 0.0
2017-Jun-21 14:30N 54°51' W 005°48'1413.8
2017-Jun-21 13:30N 54°58' W 005°28'1121.2
2017-Jun-21 13:00N 55°02' W 005°11'713.5
2017-Jun-21 12:30N 54°58' W 005°01'0 0.0
2017-Jun-21 12:00N 54°58' W 005°01'0 0.2
2017-Jun-21 11:30N 54°58' W 005°01'612.0
2017-Jun-21 11:01N 55°02' W 005°09'918.8
2017-Jun-21 10:30N 54°57' W 005°24'917.5
2017-Jun-21 10:00N 54°54' W 005°38'612.8
2017-Jun-21 09:30N 54°51' W 005°48'0 0.1
2017-Jun-21 09:00N 54°51' W 005°48'0 0.0
2017-Jun-21 08:31N 54°51' W 005°48'5 9.4
2017-Jun-21 08:00N 54°53' W 005°41'919.0
2017-Jun-21 07:30N 54°58' W 005°26'1019.2
2017-Jun-21 06:59N 55°01' W 005°10'612.8
2017-Jun-21 06:30N 54°58' W 005°01'0 0.0
2017-Jun-21 05:59N 54°58' W 005°01'0 0.0
2017-Jun-21 05:29N 54°58' W 005°01'0 0.0
2017-Jun-21 05:00N 54°58' W 005°01'510.4
2017-Jun-21 04:30N 55°02' W 005°07'815.6
2017-Jun-21 04:00N 54°58' W 005°19'1018.9
2017-Jun-21 03:30N 54°54' W 005°34'916.8
2017-Jun-21 03:00N 54°51' W 005°48'0 0.3
2017-Jun-21 02:21N 54°51' W 005°48'0 0.0
2017-Jun-21 01:57N 54°51' W 005°48'0 0.0
2017-Jun-21 01:30N 54°51' W 005°48'0 0.0
2017-Jun-21 01:00N 54°51' W 005°48'2 4.6
2017-Jun-21 00:31N 54°53' W 005°45'918.7
2017-Jun-21 00:00N 54°56' W 005°30'918.0
2017-Jun-20 23:31N 55°00' W 005°16'814.2
2017-Jun-20 22:58N 54°59' W 005°03'2 0.8
2017-Jun-20 20:56N 54°58' W 005°01'512.6
2017-Jun-20 20:30N 55°02' W 005°07'1020.5
2017-Jun-20 20:00N 54°57' W 005°24'918.3
2017-Jun-20 19:30N 54°54' W 005°39'612.1
2017-Jun-20 18:59N 54°51' W 005°48'0 0.0
2017-Jun-20 18:26N 54°51' W 005°48'0 0.0
2017-Jun-20 17:56N 54°51' W 005°48'0 0.1
2017-Jun-20 17:30N 54°51' W 005°48'816.6
2017-Jun-20 17:01N 54°55' W 005°35'1122.0
2017-Jun-20 16:31N 54°60' W 005°18'816.3
2017-Jun-20 16:00N 54°60' W 005°04'2 3.7
2017-Jun-20 15:22N 54°58' W 005°01'0 0.0
2017-Jun-20 14:58N 54°58' W 005°01'1 2.8
2017-Jun-20 14:28N 54°59' W 005°02'1616.7
2017-Jun-20 13:30N 54°56' W 005°30'1020.6
2017-Jun-20 13:00N 54°52' W 005°47'1 2.9
2017-Jun-20 12:30N 54°51' W 005°48'0 0.0
2017-Jun-20 12:00N 54°51' W 005°48'0 0.0
2017-Jun-20 11:31N 54°51' W 005°48'713.4
2017-Jun-20 11:00N 54°54' W 005°38'918.6
2017-Jun-20 10:30N 54°58' W 005°23'917.6
2017-Jun-20 10:00N 55°02' W 005°09'6 7.2
2017-Jun-20 09:10N 54°58' W 005°01'0 0.0
2017-Jun-20 09:00N 54°58' W 005°01'0 0.0
2017-Jun-20 08:30N 54°58' W 005°01'5 9.5
2017-Jun-20 07:58N 55°02' W 005°07'918.5
2017-Jun-20 07:30N 54°58' W 005°20'918.6
2017-Jun-20 07:00N 54°54' W 005°35'816.1
2017-Jun-20 06:31N 54°51' W 005°48'0 0.2
2017-Jun-20 06:00N 54°51' W 005°48'0 0.0
2017-Jun-20 05:30N 54°51' W 005°48'0 0.0
2017-Jun-20 05:00N 54°51' W 005°48'4 7.5
2017-Jun-20 04:30N 54°53' W 005°43'917.7
2017-Jun-20 04:01N 54°57' W 005°29'918.1
2017-Jun-20 03:31N 55°01' W 005°14'713.3
2017-Jun-20 03:00N 54°59' W 005°03'2 1.0
2017-Jun-20 01:04N 54°58' W 005°01'0 0.0
2017-Jun-20 01:00N 54°58' W 005°01'5 9.7
2017-Jun-20 00:27N 55°02' W 005°08'920.2
2017-Jun-20 00:00N 54°58' W 005°21'1020.1
2017-Jun-19 23:31N 54°54' W 005°37'713.2
2017-Jun-19 23:00N 54°51' W 005°48'0 0.0
2017-Jun-19 22:30N 54°51' W 005°48'0 0.0
2017-Jun-19 22:00N 54°51' W 005°48'0 0.0
2017-Jun-19 21:24N 54°51' W 005°48'0 0.0
2017-Jun-19 21:00N 54°51' W 005°48'3 5.5
2017-Jun-19 20:30N 54°53' W 005°44'1020.2
2017-Jun-19 20:00N 54°57' W 005°28'1020.1
2017-Jun-19 19:30N 55°01' W 005°12'713.9
2017-Jun-19 19:00N 54°58' W 005°02'0 0.9
2017-Jun-19 18:30N 54°58' W 005°01'0 0.0
2017-Jun-19 18:00N 54°58' W 005°01'1 1.5
2017-Jun-19 17:30N 54°58' W 005°02'714.2
2017-Jun-19 17:00N 55°00' W 005°14'1121.3
2017-Jun-19 16:30N 54°55' W 005°30'1019.4
2017-Jun-19 16:00N 54°52' W 005°46'2 3.1
2017-Jun-19 15:31N 54°51' W 005°48'0 0.0
2017-Jun-19 15:01N 54°51' W 005°48'4 7.6
2017-Jun-19 14:30N 54°53' W 005°42'2120.8
2017-Jun-19 13:30N 55°01' W 005°09'612.0
2017-Jun-19 13:00N 54°58' W 005°01'0 0.0
2017-Jun-19 12:30N 54°58' W 005°01'0 1.0
2017-Jun-19 12:00N 54°58' W 005°02'612.5
2017-Jun-19 11:30N 55°01' W 005°11'1020.7
2017-Jun-19 11:00N 54°56' W 005°27'1019.2
2017-Jun-19 10:30N 54°53' W 005°43'3 6.4
2017-Jun-19 09:58N 54°51' W 005°48'0 0.0
2017-Jun-19 09:25N 54°51' W 005°48'0 0.2
2017-Jun-19 08:56N 54°51' W 005°48'0 0.0
2017-Jun-19 08:26N 54°51' W 005°48'0 0.0
2017-Jun-19 07:59N 54°51' W 005°48'0 0.0
2017-Jun-19 07:30N 54°51' W 005°48'0 0.0
2017-Jun-19 07:00N 54°51' W 005°48'0 0.0
2017-Jun-19 06:30N 54°51' W 005°48'0 0.0
2017-Jun-19 05:59N 54°51' W 005°48'0 0.0
2017-Jun-19 05:30N 54°51' W 005°48'0 0.0
2017-Jun-19 05:00N 54°51' W 005°48'0 0.0
2017-Jun-19 04:30N 54°51' W 005°48'0 0.0
2017-Jun-19 04:00N 54°51' W 005°48'0 0.0
2017-Jun-19 03:30N 54°51' W 005°48'0 0.0
2017-Jun-19 03:00N 54°51' W 005°48'0 0.0
2017-Jun-19 02:30N 54°51' W 005°48'0 0.0
2017-Jun-19 02:00N 54°51' W 005°48'0 0.0
2017-Jun-19 01:30N 54°51' W 005°48'0 0.0
2017-Jun-19 01:00N 54°51' W 005°48'0 0.0
2017-Jun-19 00:30N 54°51' W 005°48'0 0.0
2017-Jun-19 00:00N 54°51' W 005°48'0 0.0
2017-Jun-18 23:30N 54°51' W 005°48'0 0.0
2017-Jun-18 23:00N 54°51' W 005°48'0 0.0
2017-Jun-18 22:30N 54°51' W 005°48'0 0.0
2017-Jun-18 22:00N 54°51' W 005°48'0 0.0
2017-Jun-18 21:30N 54°51' W 005°48'0 0.0
2017-Jun-18 21:00N 54°51' W 005°48'0 0.0
2017-Jun-18 20:30N 54°51' W 005°48'0 0.0
2017-Jun-18 20:00N 54°51' W 005°48'0 0.0
2017-Jun-18 19:30N 54°51' W 005°48'0 0.0
2017-Jun-18 19:00N 54°51' W 005°48'0 0.0
2017-Jun-18 18:30N 54°51' W 005°48'0 0.0
2017-Jun-18 18:00N 54°51' W 005°48'0 0.0
2017-Jun-18 17:30N 54°51' W 005°48'0 0.0
2017-Jun-18 17:00N 54°51' W 005°48'0 0.0
2017-Jun-18 16:30N 54°51' W 005°48'0 0.0
2017-Jun-18 15:59N 54°51' W 005°48'0 0.0
2017-Jun-18 15:30N 54°51' W 005°48'0 0.0
2017-Jun-18 15:00N 54°51' W 005°48'0 0.0
2017-Jun-18 14:00N 54°51' W 005°48'0 0.0
2017-Jun-18 13:30N 54°51' W 005°48'0 0.0
2017-Jun-18 13:00N 54°51' W 005°48'0 0.0
2017-Jun-18 12:30N 54°51' W 005°48'2 3.8
2017-Jun-18 12:00N 54°53' W 005°47'816.9
2017-Jun-18 11:31N 54°50' W 005°34'1019.4
2017-Jun-18 11:01N 54°42' W 005°24'1019.2
2017-Jun-18 10:30N 54°33' W 005°16'919.0
2017-Jun-18 10:01N 54°24' W 005°11'918.9
2017-Jun-18 09:30N 54°15' W 005°06'1019.0
2017-Jun-18 09:00N 54°06' W 004°60'918.9
2017-Jun-18 08:31N 53°58' W 004°51'1019.4
2017-Jun-18 08:00N 53°54' W 004°36'1019.3
2017-Jun-18 07:30N 53°48' W 004°23'919.3
2017-Jun-18 07:00N 53°43' W 004°09'1019.4
2017-Jun-18 06:30N 53°38' W 003°55'918.7
2017-Jun-18 06:00N 53°34' W 003°41'918.6
2017-Jun-18 05:30N 53°33' W 003°26'815.3
2017-Jun-18 05:00N 53°31' W 003°13'815.1
2017-Jun-18 04:30N 53°27' W 003°02'4 7.7
2017-Jun-18 04:00N 53°23' W 003°01'0 0.0
2017-Jun-18 03:18N 53°23' W 003°01'0 0.0
2017-Jun-18 02:57N 53°23' W 003°01'0 0.0
2017-Jun-18 02:30N 53°23' W 003°01'0 0.0
2017-Jun-18 02:00N 53°23' W 003°01'0 0.0
2017-Jun-18 01:30N 53°23' W 003°01'0 0.0
2017-Jun-18 01:00N 53°23' W 003°01'0 0.0
2017-Jun-18 00:30N 53°23' W 003°01'0 0.0
2017-Jun-17 23:57N 53°23' W 003°01'0 0.0
2017-Jun-17 23:30N 53°23' W 003°01'0 0.0
2017-Jun-17 22:57N 53°23' W 003°01'0 0.0
2017-Jun-17 22:30N 53°23' W 003°01'0 0.0
2017-Jun-17 22:00N 53°23' W 003°01'0 0.0
2017-Jun-17 21:30N 53°23' W 003°01'0 0.0
2017-Jun-17 21:00N 53°23' W 003°01'0 0.0
2017-Jun-17 20:27N 53°23' W 003°01'0 0.0
2017-Jun-17 20:00N 53°23' W 003°01'0 0.0
2017-Jun-17 19:30N 53°23' W 003°01'0 0.0
2017-Jun-17 18:51N 53°23' W 003°01'0 0.0
2017-Jun-17 18:30N 53°23' W 003°01'0 0.0
2017-Jun-17 17:57N 53°23' W 003°01'0 0.0
2017-Jun-17 17:27N 53°23' W 003°01'0 0.0
2017-Jun-17 16:54N 53°23' W 003°01'0 0.0
2017-Jun-17 16:30N 53°23' W 003°01'0 0.0
2017-Jun-17 15:54N 53°23' W 003°01'0 0.0
2017-Jun-17 15:30N 53°23' W 003°01'0 0.0
2017-Jun-17 14:51N 53°23' W 003°01'0 0.0
2017-Jun-17 14:27N 53°23' W 003°01'0 0.0
2017-Jun-17 13:30N 53°23' W 003°01'0 0.0
2017-Jun-17 13:00N 53°23' W 003°01'0 0.0
2017-Jun-17 12:30N 53°23' W 003°01'0 0.0
2017-Jun-17 12:00N 53°23' W 003°01'0 0.0
2017-Jun-17 11:24N 53°23' W 003°01'0 0.0
2017-Jun-17 10:57N 53°23' W 003°01'0 0.0
2017-Jun-17 10:27N 53°23' W 003°01'0 0.0
2017-Jun-17 10:00N 53°23' W 003°01'0 0.0
2017-Jun-17 09:30N 53°23' W 003°01'0 0.0
2017-Jun-17 09:00N 53°23' W 003°01'0 0.0
2017-Jun-17 08:30N 53°23' W 003°01'0 0.0
2017-Jun-17 07:51N 53°23' W 003°01'0 0.0
2017-Jun-17 07:30N 53°23' W 003°01'0 0.0
2017-Jun-17 07:00N 53°23' W 003°01'0 0.0
2017-Jun-17 06:24N 53°23' W 003°01'0 0.0
2017-Jun-17 06:00N 53°23' W 003°01'0 0.0
2017-Jun-17 05:30N 53°23' W 003°01'0 0.0
2017-Jun-17 04:57N 53°23' W 003°01'0 0.0
2017-Jun-17 04:27N 53°23' W 003°01'0 0.0
2017-Jun-17 03:57N 53°23' W 003°01'0 0.0
2017-Jun-17 03:30N 53°23' W 003°01'0 0.0
2017-Jun-17 03:00N 53°23' W 003°01'0 0.0
2017-Jun-17 02:30N 53°23' W 003°01'0 0.0
2017-Jun-17 01:57N 53°23' W 003°01'0 0.0
2017-Jun-17 01:30N 53°23' W 003°01'0 0.0
2017-Jun-17 00:57N 53°23' W 003°01'0 0.0
2017-Jun-17 00:30N 53°23' W 003°01'0 0.0
2017-Jun-17 00:00N 53°23' W 003°01'0 0.0
2017-Jun-16 23:30N 53°23' W 003°01'0 0.0
2017-Jun-16 23:00N 53°23' W 003°01'0 0.0
2017-Jun-16 22:30N 53°23' W 003°01'0 0.0
2017-Jun-16 21:51N 53°23' W 003°01'0 0.0
2017-Jun-16 21:30N 53°23' W 003°01'0 0.0
2017-Jun-16 20:57N 53°23' W 003°01'0 0.0
2017-Jun-16 20:30N 53°23' W 003°01'0 0.0
2017-Jun-16 20:00N 53°23' W 003°01'0 0.0
2017-Jun-16 19:30N 53°23' W 003°01'0 0.0
2017-Jun-16 19:00N 53°23' W 003°01'0 0.0
2017-Jun-16 18:27N 53°23' W 003°01'0 0.0
2017-Jun-16 18:00N 53°23' W 003°01'0 0.0
2017-Jun-16 17:27N 53°23' W 003°01'0 0.0
2017-Jun-16 16:54N 53°23' W 003°01'0 0.0
2017-Jun-16 16:21N 53°23' W 003°01'0 0.0
2017-Jun-16 15:57N 53°23' W 003°01'0 0.0
2017-Jun-16 15:21N 53°23' W 003°01'0 0.0
2017-Jun-16 15:00N 53°23' W 003°01'0 0.0
2017-Jun-16 13:57N 53°23' W 003°01'0 0.0
2017-Jun-16 13:21N 53°23' W 003°01'0 0.0
2017-Jun-16 12:57N 53°23' W 003°01'0 0.0
2017-Jun-16 12:30N 53°23' W 003°01'0 0.0
2017-Jun-16 11:57N 53°23' W 003°01'0 0.0
2017-Jun-16 11:27N 53°23' W 003°01'0 0.0
2017-Jun-16 11:00N 53°23' W 003°01'0 0.0
2017-Jun-16 10:30N 53°23' W 003°01'0 0.0
2017-Jun-16 10:00N 53°23' W 003°01'0 0.0
2017-Jun-16 09:30N 53°23' W 003°01'0 0.0
2017-Jun-16 08:51N 53°23' W 003°01'0 0.0
2017-Jun-16 08:30N 53°23' W 003°01'0 0.0
2017-Jun-16 08:00N 53°23' W 003°01'0 0.0
2017-Jun-16 07:27N 53°23' W 003°01'0 0.0
2017-Jun-16 07:00N 53°23' W 003°01'0 0.0
2017-Jun-16 06:30N 53°23' W 003°01'0 0.0
2017-Jun-16 06:00N 53°23' W 003°01'0 0.0
2017-Jun-16 05:30N 53°23' W 003°01'0 0.0
2017-Jun-16 05:00N 53°23' W 003°01'0 0.0
2017-Jun-16 04:27N 53°23' W 003°01'0 0.0
2017-Jun-16 04:00N 53°23' W 003°01'0 0.0
2017-Jun-16 03:27N 53°23' W 003°01'0 0.0
2017-Jun-16 03:00N 53°23' W 003°01'0 0.0
2017-Jun-16 02:30N 53°23' W 003°01'0 0.0
2017-Jun-16 02:00N 53°23' W 003°01'0 0.0
2017-Jun-16 01:30N 53°23' W 003°01'0 0.0
2017-Jun-16 00:57N 53°23' W 003°01'0 0.0
2017-Jun-16 00:30N 53°23' W 003°01'0 0.0
2017-Jun-15 23:57N 53°23' W 003°01'0 0.0
2017-Jun-15 23:30N 53°23' W 003°01'0 0.0
2017-Jun-15 22:57N 53°23' W 003°01'0 0.0
2017-Jun-15 22:27N 53°23' W 003°01'0 0.0
2017-Jun-15 21:57N 53°23' W 003°01'0 0.0
2017-Jun-15 21:30N 53°23' W 003°01'0 0.0
2017-Jun-15 20:54N 53°23' W 003°01'0 0.0
2017-Jun-15 20:30N 53°23' W 003°01'0 0.0
2017-Jun-15 20:00N 53°23' W 003°01'0 0.0
2017-Jun-15 19:24N 53°23' W 003°01'0 0.0
2017-Jun-15 19:00N 53°23' W 003°01'0 0.0
2017-Jun-15 18:30N 53°23' W 003°01'0 0.0
2017-Jun-15 18:00N 53°23' W 003°01'0 0.0
2017-Jun-15 17:27N 53°23' W 003°01'0 0.0
2017-Jun-15 17:00N 53°23' W 003°01'0 0.0
2017-Jun-15 16:30N 53°23' W 003°01'0 0.0
2017-Jun-15 15:57N 53°23' W 003°01'0 0.0
2017-Jun-15 15:30N 53°23' W 003°01'0 0.0
2017-Jun-15 15:00N 53°23' W 003°01'0 0.0
2017-Jun-15 14:30N 53°23' W 003°01'0 0.0
2017-Jun-15 13:30N 53°23' W 003°01'0 0.0
2017-Jun-15 13:00N 53°23' W 003°01'0 0.0
2017-Jun-15 12:27N 53°23' W 003°01'0 0.0
2017-Jun-15 12:00N 53°23' W 003°01'0 0.0
2017-Jun-15 11:30N 53°23' W 003°01'0 0.0
2017-Jun-15 11:00N 53°23' W 003°01'0 0.0
2017-Jun-15 10:30N 53°23' W 003°01'0 0.0
2017-Jun-15 09:57N 53°23' W 003°01'0 0.0
2017-Jun-15 09:30N 53°23' W 003°01'0 0.0
2017-Jun-15 09:00N 53°23' W 003°01'0 0.0
2017-Jun-15 08:27N 53°23' W 003°01'0 0.0
2017-Jun-15 08:00N 53°23' W 003°01'0 0.0
2017-Jun-15 07:30N 53°23' W 003°01'0 0.0
2017-Jun-15 07:00N 53°23' W 003°01'0 0.0
2017-Jun-15 06:30N 53°23' W 003°01'0 0.0
2017-Jun-15 06:00N 53°23' W 003°01'0 0.0
2017-Jun-15 05:30N 53°23' W 003°01'0 0.0
2017-Jun-15 04:57N 53°23' W 003°01'0 0.0
2017-Jun-15 04:30N 53°23' W 003°01'0 0.0
2017-Jun-15 04:00N 53°23' W 003°01'0 0.0
2017-Jun-15 03:30N 53°23' W 003°01'0 0.0
2017-Jun-15 03:00N 53°23' W 003°01'0 0.0
2017-Jun-15 02:30N 53°23' W 003°01'0 0.0
2017-Jun-15 01:54N 53°23' W 003°01'0 0.0
2017-Jun-15 01:30N 53°23' W 003°01'0 0.0
2017-Jun-15 01:00N 53°23' W 003°01'0 0.0
2017-Jun-15 00:30N 53°23' W 003°01'0 0.0
2017-Jun-15 00:00N 53°23' W 003°01'0 0.0
2017-Jun-14 23:30N 53°23' W 003°01'0 0.0
2017-Jun-14 22:57N 53°23' W 003°01'0 0.0
2017-Jun-14 22:30N 53°23' W 003°01'0 0.0
2017-Jun-14 21:57N 53°23' W 003°01'0 0.0
2017-Jun-14 21:30N 53°23' W 003°01'0 0.0
2017-Jun-14 20:48N 53°23' W 003°01'0 0.0
2017-Jun-14 20:30N 53°23' W 003°01'0 0.0
2017-Jun-14 20:00N 53°23' W 003°01'0 0.0
2017-Jun-14 19:30N 53°23' W 003°01'0 0.0
2017-Jun-14 19:00N 53°23' W 003°01'0 0.0
2017-Jun-14 18:30N 53°23' W 003°01'0 0.0
2017-Jun-14 18:00N 53°23' W 003°01'0 0.0
2017-Jun-14 17:30N 53°23' W 003°01'0 0.0
2017-Jun-14 17:00N 53°23' W 003°01'0 0.0
2017-Jun-14 16:30N 53°23' W 003°01'0 0.0
2017-Jun-14 16:00N 53°23' W 003°01'0 0.0
2017-Jun-14 15:30N 53°23' W 003°01'0 0.0
2017-Jun-14 14:57N 53°23' W 003°01'0 0.0
2017-Jun-14 14:00N 53°23' W 003°01'0 0.0
2017-Jun-14 13:30N 53°23' W 003°01'0 0.0
2017-Jun-14 13:00N 53°23' W 003°01'0 0.0
2017-Jun-14 12:30N 53°23' W 003°01'0 0.0
2017-Jun-14 12:00N 53°23' W 003°01'0 0.0
2017-Jun-14 11:30N 53°23' W 003°01'0 0.0
2017-Jun-14 11:00N 53°23' W 003°01'0 0.0
2017-Jun-14 10:27N 53°23' W 003°01'0 0.0
2017-Jun-14 09:57N 53°23' W 003°01'0 0.0
2017-Jun-14 09:30N 53°23' W 003°01'0 0.0
2017-Jun-14 09:00N 53°23' W 003°01'0 0.0
2017-Jun-14 08:24N 53°23' W 003°01'0 0.0
2017-Jun-14 08:00N 53°23' W 003°01'0 0.0
2017-Jun-14 07:30N 53°23' W 003°01'0 0.0
2017-Jun-14 06:57N 53°23' W 003°01'0 0.0
2017-Jun-14 06:30N 53°23' W 003°01'0 0.0
2017-Jun-14 06:00N 53°23' W 003°01'0 0.0
2017-Jun-14 05:30N 53°23' W 003°01'0 0.0
2017-Jun-14 04:51N 53°23' W 003°01'0 0.0
2017-Jun-14 04:27N 53°23' W 003°01'0 0.0
2017-Jun-14 03:51N 53°23' W 003°01'0 0.0
2017-Jun-14 03:30N 53°23' W 003°01'0 0.0
2017-Jun-14 03:00N 53°23' W 003°01'0 0.0
2017-Jun-14 02:30N 53°23' W 003°01'0 0.0
2017-Jun-14 02:00N 53°23' W 003°01'0 0.0
2017-Jun-14 01:30N 53°23' W 003°01'0 0.0
2017-Jun-14 01:00N 53°23' W 003°01'0 0.0
2017-Jun-14 00:30N 53°23' W 003°01'0 0.0
2017-Jun-14 00:00N 53°23' W 003°01'0 0.0
2017-Jun-13 23:27N 53°23' W 003°01'0 0.0
2017-Jun-13 22:57N 53°23' W 003°01'0 0.0
2017-Jun-13 22:30N 53°23' W 003°01'0 0.0
2017-Jun-13 22:00N 53°23' W 003°01'0 0.0
2017-Jun-13 21:30N 53°23' W 003°01'0 0.0
2017-Jun-13 21:00N 53°23' W 003°01'0 0.0
2017-Jun-13 20:30N 53°23' W 003°01'0 0.0
2017-Jun-13 19:54N 53°23' W 003°01'0 0.0
2017-Jun-13 19:24N 53°23' W 003°01'0 0.0
2017-Jun-13 19:00N 53°23' W 003°01'0 0.0
2017-Jun-13 18:30N 53°23' W 003°01'0 0.0
2017-Jun-13 18:00N 53°23' W 003°01'0 0.0
2017-Jun-13 17:27N 53°23' W 003°01'  
Track history (hours):
 
Tides and Currents Weather Stations Pressure Air Temp Water Temp Dewpoint Dewpoint Depression Visibility Wind Speed Wind Dir Waves Ship Positions

European Causeway

Operator: P & O Irish Sea

Last reported at 2017-Jun-23 17:01 UTC. Time now 2017-Jun-23 17:24 UTC.
Position N 55°01' W 005°09'.

Length 165 m; draft 5.5 m.

Type: Passenger vessel. MMSI: 311027000.

Date/timePositionNaut miles runAvg speedWind from/ knotsBaromVisibWave heightAir tempDewpointWater temp
2017-Jun-23 17:01N 55°01' W 005°09'918.3
2017-Jun-23 16:30N 54°57' W 005°23'919.0
2017-Jun-23 16:01N 54°53' W 005°38'612.4
2017-Jun-23 15:30N 54°51' W 005°48'0 0.1
2017-Jun-23 14:58N 54°51' W 005°48'0 0.0
2017-Jun-23 14:31N 54°51' W 005°48'1414.3
2017-Jun-23 13:30N 54°58' W 005°26'917.9
2017-Jun-23 13:00N 55°01' W 005°12'713.9
2017-Jun-23 12:30N 54°58' W 005°01'0 0.0
2017-Jun-23 11:54N 54°58' W 005°01'0 0.0
2017-Jun-23 11:28N 54°58' W 005°01'5 9.8
2017-Jun-23 10:55N 55°01' W 005°07'921.1
2017-Jun-23 10:31N 54°58' W 005°21'1020.7
2017-Jun-23 10:01N 54°54' W 005°38'612.9
2017-Jun-23 09:30N 54°51' W 005°48'0 0.0
2017-Jun-23 09:00N 54°51' W 005°48'0 0.0
2017-Jun-23 08:30N 54°51' W 005°48'611.1
2017-Jun-23 08:00N 54°54' W 005°40'917.2
2017-Jun-23 07:31N 54°57' W 005°26'917.5
2017-Jun-23 07:00N 55°01' W 005°12'713.2
2017-Jun-23 06:30N 54°58' W 005°02'1 1.5
2017-Jun-23 06:00N 54°58' W 005°01'0 0.0
2017-Jun-23 05:27N 54°58' W 005°01'0 0.0
2017-Jun-23 04:57N 54°58' W 005°01'5 8.7
2017-Jun-23 04:20N 55°01' W 005°07'619.5
2017-Jun-23 04:00N 54°59' W 005°17'1121.2
2017-Jun-23 03:30N 54°54' W 005°34'917.1
2017-Jun-23 03:01N 54°51' W 005°48'0 0.2
2017-Jun-23 02:28N 54°51' W 005°48'0 0.0
2017-Jun-23 01:55N 54°51' W 005°48'0 0.0
2017-Jun-23 01:28N 54°51' W 005°48'0 0.0
2017-Jun-23 01:00N 54°51' W 005°48'510.9
2017-Jun-23 00:30N 54°54' W 005°40'1019.1
2017-Jun-23 00:00N 54°58' W 005°25'917.6
2017-Jun-22 23:30N 55°01' W 005°11'713.7
2017-Jun-22 23:00N 54°58' W 005°01'0 0.0
2017-Jun-22 22:29N 54°58' W 005°01'0 0.0
2017-Jun-22 22:00N 54°58' W 005°01'0 0.0
2017-Jun-22 21:30N 54°58' W 005°01'0 0.0
2017-Jun-22 20:52N 54°58' W 005°01'612.6
2017-Jun-22 20:25N 55°01' W 005°09'717.7
2017-Jun-22 20:01N 54°58' W 005°20'918.3
2017-Jun-22 19:31N 54°54' W 005°34'816.9
2017-Jun-22 19:01N 54°51' W 005°48'0 0.2
2017-Jun-22 18:29N 54°51' W 005°48'0 0.0
2017-Jun-22 17:59N 54°51' W 005°48'0 0.1
2017-Jun-22 17:31N 54°51' W 005°48'612.2
2017-Jun-22 17:00N 54°54' W 005°38'918.2
2017-Jun-22 16:30N 54°58' W 005°25'918.9
2017-Jun-22 16:00N 55°01' W 005°09'612.1
2017-Jun-22 15:30N 54°58' W 005°01'0 0.0
2017-Jun-22 14:55N 54°58' W 005°01'0 0.0
2017-Jun-22 14:30N 54°58' W 005°01'1312.7
2017-Jun-22 13:30N 54°57' W 005°23'918.9
2017-Jun-22 13:00N 54°55' W 005°39'713.0
2017-Jun-22 12:31N 54°51' W 005°48'0 0.1
2017-Jun-22 12:00N 54°51' W 005°48'0 0.0
2017-Jun-22 11:30N 54°51' W 005°48'4 8.0
2017-Jun-22 11:00N 54°53' W 005°42'1121.5
2017-Jun-22 10:30N 54°56' W 005°24'918.3
2017-Jun-22 10:00N 55°01' W 005°11'612.4
2017-Jun-22 09:30N 54°58' W 005°01'0 0.3
2017-Jun-22 08:55N 54°58' W 005°01'0 0.0
2017-Jun-22 08:30N 54°58' W 005°01'510.4
2017-Jun-22 08:00N 55°01' W 005°07'815.9
2017-Jun-22 07:30N 54°58' W 005°20'816.1
2017-Jun-22 07:00N 54°55' W 005°32'918.3
2017-Jun-22 06:30N 54°52' W 005°47'1 1.8
2017-Jun-22 05:59N 54°51' W 005°48'0 0.0
2017-Jun-22 05:29N 54°51' W 005°48'0 0.0
2017-Jun-22 05:00N 54°51' W 005°48'511.0
2017-Jun-22 04:30N 54°54' W 005°40'1019.7
2017-Jun-22 04:00N 54°58' W 005°24'1119.9
2017-Jun-22 03:28N 55°01' W 005°07'510.9
2017-Jun-22 03:00N 54°58' W 005°01'0 0.0
2017-Jun-22 02:28N 54°58' W 005°01'0 0.0
2017-Jun-22 01:58N 54°58' W 005°01'0 0.0
2017-Jun-22 01:28N 54°58' W 005°01'0 0.0
2017-Jun-22 01:00N 54°58' W 005°01'510.2
2017-Jun-22 00:28N 55°02' W 005°07'1021.8
2017-Jun-22 00:00N 54°57' W 005°23'1020.9
2017-Jun-21 23:31N 54°53' W 005°40'5 7.5
2017-Jun-21 22:50N 54°51' W 005°48'0 0.0
2017-Jun-21 22:29N 54°51' W 005°48'0 0.0
2017-Jun-21 21:59N 54°51' W 005°48'0 0.0
2017-Jun-21 21:26N 54°51' W 005°48'0 0.0
2017-Jun-21 20:56N 54°51' W 005°48'0 0.0
2017-Jun-21 20:26N 54°51' W 005°48'0 0.0
2017-Jun-21 19:59N 54°51' W 005°48'0 0.0
2017-Jun-21 19:29N 54°51' W 005°48'0 0.2
2017-Jun-21 18:56N 54°51' W 005°48'0 0.0
2017-Jun-21 18:29N 54°51' W 005°48'0 0.0
2017-Jun-21 17:59N 54°51' W 005°48'0 0.0
2017-Jun-21 17:29N 54°51' W 005°48'0 0.0
2017-Jun-21 16:56N 54°51' W 005°48'0 0.0
2017-Jun-21 16:29N 54°51' W 005°48'0 0.0
2017-Jun-21 15:59N 54°51' W 005°48'0 0.0
2017-Jun-21 15:26N 54°51' W 005°48'0 0.0
2017-Jun-21 14:38N 54°51' W 005°48'0 0.0
2017-Jun-21 14:30N 54°51' W 005°48'1413.8
2017-Jun-21 13:30N 54°58' W 005°28'1121.2
2017-Jun-21 13:00N 55°02' W 005°11'713.5
2017-Jun-21 12:30N 54°58' W 005°01'0 0.0
2017-Jun-21 12:00N 54°58' W 005°01'0 0.2
2017-Jun-21 11:30N 54°58' W 005°01'612.0
2017-Jun-21 11:01N 55°02' W 005°09'918.8
2017-Jun-21 10:30N 54°57' W 005°24'917.5
2017-Jun-21 10:00N 54°54' W 005°38'612.8
2017-Jun-21 09:30N 54°51' W 005°48'0 0.1
2017-Jun-21 09:00N 54°51' W 005°48'0 0.0
2017-Jun-21 08:31N 54°51' W 005°48'5 9.4
2017-Jun-21 08:00N 54°53' W 005°41'919.0
2017-Jun-21 07:30N 54°58' W 005°26'1019.2
2017-Jun-21 06:59N 55°01' W 005°10'612.8
2017-Jun-21 06:30N 54°58' W 005°01'0 0.0
2017-Jun-21 05:59N 54°58' W 005°01'0 0.0
2017-Jun-21 05:29N 54°58' W 005°01'0 0.0
2017-Jun-21 05:00N 54°58' W 005°01'510.4
2017-Jun-21 04:30N 55°02' W 005°07'815.6
2017-Jun-21 04:00N 54°58' W 005°19'1018.9
2017-Jun-21 03:30N 54°54' W 005°34'916.8
2017-Jun-21 03:00N 54°51' W 005°48'0 0.3
2017-Jun-21 02:21N 54°51' W 005°48'0 0.0
2017-Jun-21 01:57N 54°51' W 005°48'0 0.0
2017-Jun-21 01:30N 54°51' W 005°48'0 0.0
2017-Jun-21 01:00N 54°51' W 005°48'2 4.6
2017-Jun-21 00:31N 54°53' W 005°45'918.7
2017-Jun-21 00:00N 54°56' W 005°30'918.0
2017-Jun-20 23:31N 55°00' W 005°16'814.2
2017-Jun-20 22:58N 54°59' W 005°03'2 0.8
2017-Jun-20 20:56N 54°58' W 005°01'512.6
2017-Jun-20 20:30N 55°02' W 005°07'1020.5
2017-Jun-20 20:00N 54°57' W 005°24'918.3
2017-Jun-20 19:30N 54°54' W 005°39'612.1
2017-Jun-20 18:59N 54°51' W 005°48'0 0.0
2017-Jun-20 18:26N 54°51' W 005°48'0 0.0
2017-Jun-20 17:56N 54°51' W 005°48'0 0.1
2017-Jun-20 17:30N 54°51' W 005°48'816.6
2017-Jun-20 17:01N 54°55' W 005°35'1122.0
2017-Jun-20 16:31N 54°60' W 005°18'816.3
2017-Jun-20 16:00N 54°60' W 005°04'2 3.7
2017-Jun-20 15:22N 54°58' W 005°01'0 0.0
2017-Jun-20 14:58N 54°58' W 005°01'1 2.8
2017-Jun-20 14:28N 54°59' W 005°02'1616.7
2017-Jun-20 13:30N 54°56' W 005°30'1020.6
2017-Jun-20 13:00N 54°52' W 005°47'1 2.9
2017-Jun-20 12:30N 54°51' W 005°48'0 0.0
2017-Jun-20 12:00N 54°51' W 005°48'0 0.0
2017-Jun-20 11:31N 54°51' W 005°48'713.4
2017-Jun-20 11:00N 54°54' W 005°38'918.6
2017-Jun-20 10:30N 54°58' W 005°23'917.6
2017-Jun-20 10:00N 55°02' W 005°09'6 7.2
2017-Jun-20 09:10N 54°58' W 005°01'0 0.0
2017-Jun-20 09:00N 54°58' W 005°01'0 0.0
2017-Jun-20 08:30N 54°58' W 005°01'5 9.5
2017-Jun-20 07:58N 55°02' W 005°07'918.5
2017-Jun-20 07:30N 54°58' W 005°20'918.6
2017-Jun-20 07:00N 54°54' W 005°35'816.1
2017-Jun-20 06:31N 54°51' W 005°48'0 0.2
2017-Jun-20 06:00N 54°51' W 005°48'0 0.0
2017-Jun-20 05:30N 54°51' W 005°48'0 0.0
2017-Jun-20 05:00N 54°51' W 005°48'4 7.5
2017-Jun-20 04:30N 54°53' W 005°43'917.7
2017-Jun-20 04:01N 54°57' W 005°29'918.1
2017-Jun-20 03:31N 55°01' W 005°14'713.3
2017-Jun-20 03:00N 54°59' W 005°03'2 1.0
2017-Jun-20 01:04N 54°58' W 005°01'0 0.0
2017-Jun-20 01:00N 54°58' W 005°01'5 9.7
2017-Jun-20 00:27N 55°02' W 005°08'920.2
2017-Jun-20 00:00N 54°58' W 005°21'1020.1
2017-Jun-19 23:31N 54°54' W 005°37'713.2
2017-Jun-19 23:00N 54°51' W 005°48'0 0.0
2017-Jun-19 22:30N 54°51' W 005°48'0 0.0
2017-Jun-19 22:00N 54°51' W 005°48'0 0.0
2017-Jun-19 21:24N 54°51' W 005°48'0 0.0
2017-Jun-19 21:00N 54°51' W 005°48'3 5.5
2017-Jun-19 20:30N 54°53' W 005°44'1020.2
2017-Jun-19 20:00N 54°57' W 005°28'1020.1
2017-Jun-19 19:30N 55°01' W 005°12'713.9
2017-Jun-19 19:00N 54°58' W 005°02'0 0.9
2017-Jun-19 18:30N 54°58' W 005°01'0 0.0
2017-Jun-19 18:00N 54°58' W 005°01'1 1.5
2017-Jun-19 17:30N 54°58' W 005°02'714.2
2017-Jun-19 17:00N 55°00' W 005°14'1121.3
2017-Jun-19 16:30N 54°55' W 005°30'1019.4
2017-Jun-19 16:00N 54°52' W 005°46'2 3.1
2017-Jun-19 15:31N 54°51' W 005°48'0 0.0
2017-Jun-19 15:01N 54°51' W 005°48'4 7.6
2017-Jun-19 14:30N 54°53' W 005°42'2120.8
2017-Jun-19 13:30N 55°01' W 005°09'612.0
2017-Jun-19 13:00N 54°58' W 005°01'0 0.0
2017-Jun-19 12:30N 54°58' W 005°01'0 1.0
2017-Jun-19 12:00N 54°58' W 005°02'612.5
2017-Jun-19 11:30N 55°01' W 005°11'1020.7
2017-Jun-19 11:00N 54°56' W 005°27'1019.2
2017-Jun-19 10:30N 54°53' W 005°43'3 6.4
2017-Jun-19 09:58N 54°51' W 005°48'0 0.0
2017-Jun-19 09:25N 54°51' W 005°48'0 0.2
2017-Jun-19 08:56N 54°51' W 005°48'0 0.0
2017-Jun-19 08:26N 54°51' W 005°48'0 0.0
2017-Jun-19 07:59N 54°51' W 005°48'0 0.0
2017-Jun-19 07:30N 54°51' W 005°48'0 0.0
2017-Jun-19 07:00N 54°51' W 005°48'0 0.0
2017-Jun-19 06:30N 54°51' W 005°48'0 0.0
2017-Jun-19 05:59N 54°51' W 005°48'0 0.0
2017-Jun-19 05:30N 54°51' W 005°48'0 0.0
2017-Jun-19 05:00N 54°51' W 005°48'0 0.0
2017-Jun-19 04:30N 54°51' W 005°48'0 0.0
2017-Jun-19 04:00N 54°51' W 005°48'0 0.0
2017-Jun-19 03:30N 54°51' W 005°48'0 0.0
2017-Jun-19 03:00N 54°51' W 005°48'0 0.0
2017-Jun-19 02:30N 54°51' W 005°48'0 0.0
2017-Jun-19 02:00N 54°51' W 005°48'0 0.0
2017-Jun-19 01:30N 54°51' W 005°48'0 0.0
2017-Jun-19 01:00N 54°51' W 005°48'0 0.0
2017-Jun-19 00:30N 54°51' W 005°48'0 0.0
2017-Jun-19 00:00N 54°51' W 005°48'0 0.0
2017-Jun-18 23:30N 54°51' W 005°48'0 0.0
2017-Jun-18 23:00N 54°51' W 005°48'0 0.0
2017-Jun-18 22:30N 54°51' W 005°48'0 0.0
2017-Jun-18 22:00N 54°51' W 005°48'0 0.0
2017-Jun-18 21:30N 54°51' W 005°48'0 0.0
2017-Jun-18 21:00N 54°51' W 005°48'0 0.0
2017-Jun-18 20:30N 54°51' W 005°48'0 0.0
2017-Jun-18 20:00N 54°51' W 005°48'0 0.0
2017-Jun-18 19:30N 54°51' W 005°48'0 0.0
2017-Jun-18 19:00N 54°51' W 005°48'0 0.0
2017-Jun-18 18:30N 54°51' W 005°48'0 0.0
2017-Jun-18 18:00N 54°51' W 005°48'0 0.0
2017-Jun-18 17:30N 54°51' W 005°48'0 0.0
2017-Jun-18 17:00N 54°51' W 005°48'0 0.0
2017-Jun-18 16:30N 54°51' W 005°48'0 0.0
2017-Jun-18 15:59N 54°51' W 005°48'0 0.0
2017-Jun-18 15:30N 54°51' W 005°48'0 0.0
2017-Jun-18 15:00N 54°51' W 005°48'0 0.0
2017-Jun-18 14:00N 54°51' W 005°48'0 0.0
2017-Jun-18 13:30N 54°51' W 005°48'0 0.0
2017-Jun-18 13:00N 54°51' W 005°48'0 0.0
2017-Jun-18 12:30N 54°51' W 005°48'2 3.8
2017-Jun-18 12:00N 54°53' W 005°47'816.9
2017-Jun-18 11:31N 54°50' W 005°34'1019.4
2017-Jun-18 11:01N 54°42' W 005°24'1019.2
2017-Jun-18 10:30N 54°33' W 005°16'919.0
2017-Jun-18 10:01N 54°24' W 005°11'918.9
2017-Jun-18 09:30N 54°15' W 005°06'1019.0
2017-Jun-18 09:00N 54°06' W 004°60'918.9
2017-Jun-18 08:31N 53°58' W 004°51'1019.4
2017-Jun-18 08:00N 53°54' W 004°36'1019.3
2017-Jun-18 07:30N 53°48' W 004°23'919.3
2017-Jun-18 07:00N 53°43' W 004°09'1019.4
2017-Jun-18 06:30N 53°38' W 003°55'918.7
2017-Jun-18 06:00N 53°34' W 003°41'918.6
2017-Jun-18 05:30N 53°33' W 003°26'815.3
2017-Jun-18 05:00N 53°31' W 003°13'815.1
2017-Jun-18 04:30N 53°27' W 003°02'4 7.7
2017-Jun-18 04:00N 53°23' W 003°01'0 0.0
2017-Jun-18 03:18N 53°23' W 003°01'0 0.0
2017-Jun-18 02:57N 53°23' W 003°01'0 0.0
2017-Jun-18 02:30N 53°23' W 003°01'0 0.0
2017-Jun-18 02:00N 53°23' W 003°01'0 0.0
2017-Jun-18 01:30N 53°23' W 003°01'0 0.0
2017-Jun-18 01:00N 53°23' W 003°01'0 0.0
2017-Jun-18 00:30N 53°23' W 003°01'0 0.0
2017-Jun-17 23:57N 53°23' W 003°01'0 0.0
2017-Jun-17 23:30N 53°23' W 003°01'0 0.0
2017-Jun-17 22:57N 53°23' W 003°01'0 0.0
2017-Jun-17 22:30N 53°23' W 003°01'0 0.0
2017-Jun-17 22:00N 53°23' W 003°01'0 0.0
2017-Jun-17 21:30N 53°23' W 003°01'0 0.0
2017-Jun-17 21:00N 53°23' W 003°01'0 0.0
2017-Jun-17 20:27N 53°23' W 003°01'0 0.0
2017-Jun-17 20:00N 53°23' W 003°01'0 0.0
2017-Jun-17 19:30N 53°23' W 003°01'0 0.0
2017-Jun-17 18:51N 53°23' W 003°01'0 0.0
2017-Jun-17 18:30N 53°23' W 003°01'0 0.0
2017-Jun-17 17:57N 53°23' W 003°01'0 0.0
2017-Jun-17 17:27N 53°23' W 003°01'0 0.0
2017-Jun-17 16:54N 53°23' W 003°01'0 0.0
2017-Jun-17 16:30N 53°23' W 003°01'0 0.0
2017-Jun-17 15:54N 53°23' W 003°01'0 0.0
2017-Jun-17 15:30N 53°23' W 003°01'0 0.0
2017-Jun-17 14:51N 53°23' W 003°01'0 0.0
2017-Jun-17 14:27N 53°23' W 003°01'0 0.0
2017-Jun-17 13:30N 53°23' W 003°01'0 0.0
2017-Jun-17 13:00N 53°23' W 003°01'0 0.0
2017-Jun-17 12:30N 53°23' W 003°01'0 0.0
2017-Jun-17 12:00N 53°23' W 003°01'0 0.0
2017-Jun-17 11:24N 53°23' W 003°01'0 0.0
2017-Jun-17 10:57N 53°23' W 003°01'0 0.0
2017-Jun-17 10:27N 53°23' W 003°01'0 0.0
2017-Jun-17 10:00N 53°23' W 003°01'0 0.0
2017-Jun-17 09:30N 53°23' W 003°01'0 0.0
2017-Jun-17 09:00N 53°23' W 003°01'0 0.0
2017-Jun-17 08:30N 53°23' W 003°01'0 0.0
2017-Jun-17 07:51N 53°23' W 003°01'0 0.0
2017-Jun-17 07:30N 53°23' W 003°01'0 0.0
2017-Jun-17 07:00N 53°23' W 003°01'0 0.0
2017-Jun-17 06:24N 53°23' W 003°01'0 0.0
2017-Jun-17 06:00N 53°23' W 003°01'0 0.0
2017-Jun-17 05:30N 53°23' W 003°01'0 0.0
2017-Jun-17 04:57N 53°23' W 003°01'0 0.0
2017-Jun-17 04:27N 53°23' W 003°01'0 0.0
2017-Jun-17 03:57N 53°23' W 003°01'0 0.0
2017-Jun-17 03:30N 53°23' W 003°01'0 0.0
2017-Jun-17 03:00N 53°23' W 003°01'0 0.0
2017-Jun-17 02:30N 53°23' W 003°01'0 0.0
2017-Jun-17 01:57N 53°23' W 003°01'0 0.0
2017-Jun-17 01:30N 53°23' W 003°01'0 0.0
2017-Jun-17 00:57N 53°23' W 003°01'0 0.0
2017-Jun-17 00:30N 53°23' W 003°01'0 0.0
2017-Jun-17 00:00N 53°23' W 003°01'0 0.0
2017-Jun-16 23:30N 53°23' W 003°01'0 0.0
2017-Jun-16 23:00N 53°23' W 003°01'0 0.0
2017-Jun-16 22:30N 53°23' W 003°01'0 0.0
2017-Jun-16 21:51N 53°23' W 003°01'0 0.0
2017-Jun-16 21:30N 53°23' W 003°01'0 0.0
2017-Jun-16 20:57N 53°23' W 003°01'0 0.0
2017-Jun-16 20:30N 53°23' W 003°01'0 0.0
2017-Jun-16 20:00N 53°23' W 003°01'0 0.0
2017-Jun-16 19:30N 53°23' W 003°01'0 0.0
2017-Jun-16 19:00N 53°23' W 003°01'0 0.0
2017-Jun-16 18:27N 53°23' W 003°01'0 0.0
2017-Jun-16 18:00N 53°23' W 003°01'0 0.0
2017-Jun-16 17:27N 53°23' W 003°01'0 0.0
2017-Jun-16 16:54N 53°23' W 003°01'0 0.0
2017-Jun-16 16:21N 53°23' W 003°01'0 0.0
2017-Jun-16 15:57N 53°23' W 003°01'0 0.0
2017-Jun-16 15:21N 53°23' W 003°01'0 0.0
2017-Jun-16 15:00N 53°23' W 003°01'0 0.0
2017-Jun-16 13:57N 53°23' W 003°01'0 0.0
2017-Jun-16 13:21N 53°23' W 003°01'0 0.0
2017-Jun-16 12:57N 53°23' W 003°01'0 0.0
2017-Jun-16 12:30N 53°23' W 003°01'0 0.0
2017-Jun-16 11:57N 53°23' W 003°01'0 0.0
2017-Jun-16 11:27N 53°23' W 003°01'0 0.0
2017-Jun-16 11:00N 53°23' W 003°01'0 0.0
2017-Jun-16 10:30N 53°23' W 003°01'0 0.0
2017-Jun-16 10:00N 53°23' W 003°01'0 0.0
2017-Jun-16 09:30N 53°23' W 003°01'0 0.0
2017-Jun-16 08:51N 53°23' W 003°01'0 0.0
2017-Jun-16 08:30N 53°23' W 003°01'0 0.0
2017-Jun-16 08:00N 53°23' W 003°01'0 0.0
2017-Jun-16 07:27N 53°23' W 003°01'0 0.0
2017-Jun-16 07:00N 53°23' W 003°01'0 0.0
2017-Jun-16 06:30N 53°23' W 003°01'0 0.0
2017-Jun-16 06:00N 53°23' W 003°01'0 0.0
2017-Jun-16 05:30N 53°23' W 003°01'0 0.0
2017-Jun-16 05:00N 53°23' W 003°01'0 0.0
2017-Jun-16 04:27N 53°23' W 003°01'0 0.0
2017-Jun-16 04:00N 53°23' W 003°01'0 0.0
2017-Jun-16 03:27N 53°23' W 003°01'0 0.0
2017-Jun-16 03:00N 53°23' W 003°01'0 0.0
2017-Jun-16 02:30N 53°23' W 003°01'0 0.0
2017-Jun-16 02:00N 53°23' W 003°01'0 0.0
2017-Jun-16 01:30N 53°23' W 003°01'0 0.0
2017-Jun-16 00:57N 53°23' W 003°01'0 0.0
2017-Jun-16 00:30N 53°23' W 003°01'0 0.0
2017-Jun-15 23:57N 53°23' W 003°01'0 0.0
2017-Jun-15 23:30N 53°23' W 003°01'0 0.0
2017-Jun-15 22:57N 53°23' W 003°01'0 0.0
2017-Jun-15 22:27N 53°23' W 003°01'0 0.0
2017-Jun-15 21:57N 53°23' W 003°01'0 0.0
2017-Jun-15 21:30N 53°23' W 003°01'0 0.0
2017-Jun-15 20:54N 53°23' W 003°01'0 0.0
2017-Jun-15 20:30N 53°23' W 003°01'0 0.0
2017-Jun-15 20:00N 53°23' W 003°01'0 0.0
2017-Jun-15 19:24N 53°23' W 003°01'0 0.0
2017-Jun-15 19:00N 53°23' W 003°01'0 0.0
2017-Jun-15 18:30N 53°23' W 003°01'0 0.0
2017-Jun-15 18:00N 53°23' W 003°01'0 0.0
2017-Jun-15 17:27N 53°23' W 003°01'0 0.0
2017-Jun-15 17:00N 53°23' W 003°01'0 0.0
2017-Jun-15 16:30N 53°23' W 003°01'0 0.0
2017-Jun-15 15:57N 53°23' W 003°01'0 0.0
2017-Jun-15 15:30N 53°23' W 003°01'0 0.0
2017-Jun-15 15:00N 53°23' W 003°01'0 0.0
2017-Jun-15 14:30N 53°23' W 003°01'0 0.0
2017-Jun-15 13:30N 53°23' W 003°01'0 0.0
2017-Jun-15 13:00N 53°23' W 003°01'0 0.0
2017-Jun-15 12:27N 53°23' W 003°01'0 0.0
2017-Jun-15 12:00N 53°23' W 003°01'0 0.0
2017-Jun-15 11:30N 53°23' W 003°01'0 0.0
2017-Jun-15 11:00N 53°23' W 003°01'0 0.0
2017-Jun-15 10:30N 53°23' W 003°01'0 0.0
2017-Jun-15 09:57N 53°23' W 003°01'0 0.0
2017-Jun-15 09:30N 53°23' W 003°01'0 0.0
2017-Jun-15 09:00N 53°23' W 003°01'0 0.0
2017-Jun-15 08:27N 53°23' W 003°01'0 0.0
2017-Jun-15 08:00N 53°23' W 003°01'0 0.0
2017-Jun-15 07:30N 53°23' W 003°01'0 0.0
2017-Jun-15 07:00N 53°23' W 003°01'0 0.0
2017-Jun-15 06:30N 53°23' W 003°01'0 0.0
2017-Jun-15 06:00N 53°23' W 003°01'0 0.0
2017-Jun-15 05:30N 53°23' W 003°01'0 0.0
2017-Jun-15 04:57N 53°23' W 003°01'0 0.0
2017-Jun-15 04:30N 53°23' W 003°01'0 0.0
2017-Jun-15 04:00N 53°23' W 003°01'0 0.0
2017-Jun-15 03:30N 53°23' W 003°01'0 0.0
2017-Jun-15 03:00N 53°23' W 003°01'0 0.0
2017-Jun-15 02:30N 53°23' W 003°01'0 0.0
2017-Jun-15 01:54N 53°23' W 003°01'0 0.0
2017-Jun-15 01:30N 53°23' W 003°01'0 0.0
2017-Jun-15 01:00N 53°23' W 003°01'0 0.0
2017-Jun-15 00:30N 53°23' W 003°01'0 0.0
2017-Jun-15 00:00N 53°23' W 003°01'0 0.0
2017-Jun-14 23:30N 53°23' W 003°01'0 0.0
2017-Jun-14 22:57N 53°23' W 003°01'0 0.0
2017-Jun-14 22:30N 53°23' W 003°01'0 0.0
2017-Jun-14 21:57N 53°23' W 003°01'0 0.0
2017-Jun-14 21:30N 53°23' W 003°01'0 0.0
2017-Jun-14 20:48N 53°23' W 003°01'0 0.0
2017-Jun-14 20:30N 53°23' W 003°01'0 0.0
2017-Jun-14 20:00N 53°23' W 003°01'0 0.0
2017-Jun-14 19:30N 53°23' W 003°01'0 0.0
2017-Jun-14 19:00N 53°23' W 003°01'0 0.0
2017-Jun-14 18:30N 53°23' W 003°01'0 0.0
2017-Jun-14 18:00N 53°23' W 003°01'0 0.0
2017-Jun-14 17:30N 53°23' W 003°01'0 0.0
2017-Jun-14 17:00N 53°23' W 003°01'0 0.0
2017-Jun-14 16:30N 53°23' W 003°01'0 0.0
2017-Jun-14 16:00N 53°23' W 003°01'0 0.0
2017-Jun-14 15:30N 53°23' W 003°01'0 0.0
2017-Jun-14 14:57N 53°23' W 003°01'0 0.0
2017-Jun-14 14:00N 53°23' W 003°01'0 0.0
2017-Jun-14 13:30N 53°23' W 003°01'0 0.0
2017-Jun-14 13:00N 53°23' W 003°01'0 0.0
2017-Jun-14 12:30N 53°23' W 003°01'0 0.0
2017-Jun-14 12:00N 53°23' W 003°01'0 0.0
2017-Jun-14 11:30N 53°23' W 003°01'0 0.0
2017-Jun-14 11:00N 53°23' W 003°01'0 0.0
2017-Jun-14 10:27N 53°23' W 003°01'0 0.0
2017-Jun-14 09:57N 53°23' W 003°01'0 0.0
2017-Jun-14 09:30N 53°23' W 003°01'0 0.0
2017-Jun-14 09:00N 53°23' W 003°01'0 0.0
2017-Jun-14 08:24N 53°23' W 003°01'0 0.0
2017-Jun-14 08:00N 53°23' W 003°01'0 0.0
2017-Jun-14 07:30N 53°23' W 003°01'0 0.0
2017-Jun-14 06:57N 53°23' W 003°01'0 0.0
2017-Jun-14 06:30N 53°23' W 003°01'0 0.0
2017-Jun-14 06:00N 53°23' W 003°01'0 0.0
2017-Jun-14 05:30N 53°23' W 003°01'0 0.0
2017-Jun-14 04:51N 53°23' W 003°01'0 0.0
2017-Jun-14 04:27N 53°23' W 003°01'0 0.0
2017-Jun-14 03:51N 53°23' W 003°01'0 0.0
2017-Jun-14 03:30N 53°23' W 003°01'0 0.0
2017-Jun-14 03:00N 53°23' W 003°01'0 0.0
2017-Jun-14 02:30N 53°23' W 003°01'0 0.0
2017-Jun-14 02:00N 53°23' W 003°01'0 0.0
2017-Jun-14 01:30N 53°23' W 003°01'0 0.0
2017-Jun-14 01:00N 53°23' W 003°01'0 0.0
2017-Jun-14 00:30N 53°23' W 003°01'0 0.0
2017-Jun-14 00:00N 53°23' W 003°01'0 0.0
2017-Jun-13 23:27N 53°23' W 003°01'0 0.0
2017-Jun-13 22:57N 53°23' W 003°01'0 0.0
2017-Jun-13 22:30N 53°23' W 003°01'0 0.0
2017-Jun-13 22:00N 53°23' W 003°01'0 0.0
2017-Jun-13 21:30N 53°23' W 003°01'0 0.0
2017-Jun-13 21:00N 53°23' W 003°01'0 0.0
2017-Jun-13 20:30N 53°23' W 003°01'0 0.0
2017-Jun-13 19:54N 53°23' W 003°01'0 0.0
2017-Jun-13 19:24N 53°23' W 003°01'0 0.0
2017-Jun-13 19:00N 53°23' W 003°01'0 0.0
2017-Jun-13 18:30N 53°23' W 003°01'0 0.0
2017-Jun-13 18:00N 53°23' W 003°01'0 0.0
2017-Jun-13 17:27N 53°23' W 003°01'  

Dump ship's entire track history